createdAt,value
2022-10-16T00:00:00.939Z,11.70
2022-10-16T00:02:28.863Z,12.10
2022-10-16T00:04:56.762Z,11.60
2022-10-16T00:07:24.969Z,11.60
2022-10-16T00:09:54.370Z,11.60
2022-10-16T00:12:22.918Z,11.60
2022-10-16T00:14:50.973Z,11.60
2022-10-16T00:17:18.895Z,11.70
2022-10-16T00:19:46.739Z,11.70
2022-10-16T00:22:14.601Z,11.80
2022-10-16T00:24:42.451Z,11.80
2022-10-16T00:27:11.682Z,11.80
2022-10-16T00:29:39.531Z,11.90
2022-10-16T00:32:07.418Z,12.00
2022-10-16T00:34:35.291Z,12.00
2022-10-16T00:37:03.149Z,12.10
2022-10-16T00:39:31.015Z,12.20
2022-10-16T00:41:58.878Z,12.10
2022-10-16T00:44:53.330Z,12.10
2022-10-16T00:47:26.103Z,12.20
2022-10-16T00:50:00.203Z,12.10
2022-10-16T00:52:28.433Z,12.10
2022-10-16T00:54:57.811Z,12.10
2022-10-16T00:57:26.996Z,12.10
2022-10-16T00:59:56.657Z,12.10
2022-10-16T01:02:24.775Z,12.10
2022-10-16T01:04:55.230Z,12.10
2022-10-16T01:07:34.211Z,12.10
2022-10-16T01:10:09.701Z,12.10
2022-10-16T01:12:47.031Z,12.90
2022-10-16T01:15:24.411Z,12.00
2022-10-16T01:17:59.380Z,12.00
2022-10-16T01:20:32.057Z,12.00
2022-10-16T01:23:08.321Z,12.00
2022-10-16T01:25:51.546Z,12.00
2022-10-16T01:28:24.576Z,11.90
2022-10-16T01:30:57.205Z,11.90
2022-10-16T01:33:28.906Z,12.90
2022-10-16T01:36:01.192Z,11.90
2022-10-16T01:38:34.431Z,11.90
2022-10-16T01:41:06.695Z,11.90
2022-10-16T01:43:40.456Z,11.90
2022-10-16T01:46:09.817Z,11.70
2022-10-16T01:48:38.620Z,11.70
2022-10-16T01:51:10.946Z,11.60
2022-10-16T01:53:39.714Z,11.60
2022-10-16T01:56:10.615Z,11.60
2022-10-16T01:58:45.859Z,11.50
2022-10-16T02:03:46.750Z,11.50
2022-10-16T02:06:14.859Z,11.40
2022-10-16T02:08:45.003Z,11.90
2022-10-16T02:11:13.111Z,11.70
2022-10-16T02:13:47.139Z,12.20
2022-10-16T02:16:15.728Z,11.30
2022-10-16T02:18:45.263Z,11.30
2022-10-16T02:21:19.555Z,11.20
2022-10-16T02:23:53.431Z,11.20
2022-10-16T02:26:29.610Z,12.60
2022-10-16T02:29:05.669Z,11.20
2022-10-16T02:31:36.466Z,11.20
2022-10-16T02:34:06.214Z,11.20
2022-10-16T02:36:35.018Z,12.60
2022-10-16T02:39:05.254Z,11.30
2022-10-16T02:41:33.747Z,11.30
2022-10-16T02:44:02.986Z,11.70
2022-10-16T02:46:30.926Z,11.30
2022-10-16T02:48:58.799Z,11.30
2022-10-16T02:51:26.986Z,11.20
2022-10-16T02:53:54.855Z,12.20
2022-10-16T02:56:22.943Z,11.20
2022-10-16T02:58:50.843Z,11.10
2022-10-16T03:01:20.156Z,12.90
2022-10-16T03:03:48.099Z,11.90
2022-10-16T03:06:15.982Z,13.20
2022-10-16T03:08:43.887Z,11.00
2022-10-16T03:11:11.736Z,11.00
2022-10-16T03:13:39.596Z,11.00
2022-10-16T03:16:07.588Z,11.00
2022-10-16T03:18:36.896Z,11.00
2022-10-16T03:21:04.880Z,11.70
2022-10-16T03:23:32.799Z,11.00
2022-10-16T03:26:00.981Z,13.20
2022-10-16T03:28:28.896Z,11.00
2022-10-16T03:30:56.866Z,11.00
2022-10-16T03:33:24.779Z,11.00
2022-10-16T03:35:57.067Z,12.90
2022-10-16T03:38:25.032Z,11.00
2022-10-16T03:40:52.886Z,11.00
2022-10-16T03:43:20.791Z,11.40
2022-10-16T03:45:48.671Z,11.00
2022-10-16T03:48:16.543Z,11.00
2022-10-16T03:50:44.410Z,11.20
2022-10-16T03:53:13.599Z,11.80
2022-10-16T03:55:43.634Z,11.00
2022-10-16T03:58:11.971Z,11.00
2022-10-16T04:00:42.753Z,11.40
2022-10-16T04:03:10.844Z,11.00
2022-10-16T04:05:39.012Z,10.90
2022-10-16T04:08:06.907Z,10.90
2022-10-16T04:10:36.167Z,10.90
2022-10-16T04:13:04.071Z,10.90
2022-10-16T04:15:31.966Z,11.30
2022-10-16T04:17:59.875Z,12.40
2022-10-16T04:20:27.768Z,11.40
2022-10-16T04:22:55.642Z,10.80
2022-10-16T04:25:23.683Z,10.80
2022-10-16T04:27:54.872Z,10.70
2022-10-16T04:30:23.628Z,10.70
2022-10-16T04:32:51.567Z,10.80
2022-10-16T04:35:19.767Z,11.40
2022-10-16T04:37:47.871Z,10.70
2022-10-16T04:40:16.171Z,10.80
2022-10-16T04:42:44.150Z,10.80
2022-10-16T04:45:16.410Z,10.80
2022-10-16T04:47:45.244Z,10.80
2022-10-16T04:50:13.275Z,10.80
2022-10-16T04:52:41.219Z,12.00
2022-10-16T04:55:09.746Z,10.90
2022-10-16T04:57:37.607Z,10.90
2022-10-16T05:00:06.426Z,11.00
2022-10-16T05:02:35.883Z,11.00
2022-10-16T05:05:03.793Z,12.00
2022-10-16T05:07:31.719Z,11.00
2022-10-16T05:09:59.587Z,11.00
2022-10-16T05:12:27.430Z,12.20
2022-10-16T05:14:59.295Z,10.90
2022-10-16T05:17:27.834Z,10.90
2022-10-16T05:19:57.370Z,11.40
2022-10-16T05:22:25.351Z,10.90
2022-10-16T05:24:53.175Z,10.80
2022-10-16T05:27:21.038Z,10.80
2022-10-16T05:29:49.793Z,12.70
2022-10-16T05:32:19.352Z,10.80
2022-10-16T05:34:47.883Z,11.60
2022-10-16T05:37:17.070Z,10.70
2022-10-16T05:39:44.939Z,10.70
2022-10-16T05:42:12.824Z,10.80
2022-10-16T05:44:40.666Z,10.70
2022-10-16T05:47:08.515Z,10.80
2022-10-16T05:49:39.130Z,10.70
2022-10-16T05:52:09.244Z,10.70
2022-10-16T05:54:38.487Z,10.70
2022-10-16T05:57:06.711Z,10.70
2022-10-16T05:59:34.627Z,10.70
2022-10-16T06:02:02.640Z,10.80
2022-10-16T06:04:30.503Z,10.90
2022-10-16T06:07:02.227Z,11.00
2022-10-16T06:09:30.069Z,11.10
2022-10-16T06:11:59.377Z,11.20
2022-10-16T06:14:27.291Z,11.30
2022-10-16T06:16:55.175Z,11.40
2022-10-16T06:19:23.831Z,11.50
2022-10-16T06:21:51.682Z,11.60
2022-10-16T06:24:19.556Z,12.70
2022-10-16T06:26:47.498Z,11.80
2022-10-16T06:29:16.750Z,12.50
2022-10-16T06:31:44.632Z,12.00
2022-10-16T06:34:12.942Z,14.20
2022-10-16T06:36:41.661Z,14.20
2022-10-16T06:39:09.556Z,12.50
2022-10-16T06:41:37.951Z,12.30
2022-10-16T06:44:08.674Z,13.00
2022-10-16T06:46:38.021Z,12.50
2022-10-16T06:49:06.072Z,12.50
2022-10-16T06:51:37.983Z,12.60
2022-10-16T06:54:08.463Z,12.60
2022-10-16T06:56:36.933Z,13.30
2022-10-16T06:59:05.271Z,13.70
2022-10-16T07:01:34.258Z,13.70
2022-10-16T07:04:04.114Z,12.80
2022-10-16T07:06:34.707Z,12.80
2022-10-16T07:09:05.771Z,12.90
2022-10-16T07:11:34.144Z,13.00
2022-10-16T07:14:02.247Z,13.80
2022-10-16T07:16:31.578Z,13.20
2022-10-16T07:19:01.157Z,13.30
2022-10-16T07:21:32.389Z,13.50
2022-10-16T07:24:02.034Z,13.60
2022-10-16T07:26:32.500Z,14.20
2022-10-16T07:29:01.177Z,13.90
2022-10-16T07:31:29.870Z,15.40
2022-10-16T07:34:00.646Z,14.10
2022-10-16T07:36:29.913Z,14.10
2022-10-16T07:38:59.855Z,14.30
2022-10-16T07:41:28.394Z,14.30
2022-10-16T07:43:57.417Z,14.30
2022-10-16T07:46:25.501Z,15.10
2022-10-16T07:48:53.401Z,15.40
2022-10-16T07:51:23.845Z,14.80
2022-10-16T07:53:53.920Z,14.50
2022-10-16T07:56:22.804Z,14.70
2022-10-16T07:58:51.875Z,14.30
2022-10-16T08:01:20.478Z,15.00
2022-10-16T08:03:49.682Z,15.30
2022-10-16T08:06:19.743Z,14.20
2022-10-16T08:08:50.137Z,15.80
2022-10-16T08:11:19.388Z,14.60
2022-10-16T08:13:47.244Z,14.40
2022-10-16T08:16:15.830Z,14.90
2022-10-16T08:18:43.723Z,14.70
2022-10-16T08:21:20.190Z,14.80
2022-10-16T08:23:53.040Z,15.60
2022-10-16T08:26:28.487Z,15.00
2022-10-16T08:28:57.157Z,16.20
2022-10-16T08:31:26.947Z,15.40
2022-10-16T08:33:56.987Z,15.40
2022-10-16T08:36:24.926Z,15.70
2022-10-16T08:38:55.243Z,16.40
2022-10-16T08:41:59.555Z,15.90
2022-10-16T08:44:38.664Z,15.60
2022-10-16T08:47:19.296Z,15.70
2022-10-16T08:49:58.968Z,16.30
2022-10-16T08:52:31.958Z,16.00
2022-10-16T08:54:59.991Z,16.00
2022-10-16T08:57:29.575Z,16.70
2022-10-16T09:00:02.135Z,16.30
2022-10-16T09:02:35.902Z,16.60
2022-10-16T09:05:36.907Z,16.60
2022-10-16T09:08:16.415Z,16.60
2022-10-16T09:10:52.088Z,16.80
2022-10-16T09:13:26.872Z,16.80
2022-10-16T09:16:01.718Z,17.00
2022-10-16T09:18:36.263Z,17.00
2022-10-16T09:21:10.578Z,17.10
2022-10-16T09:23:39.479Z,17.10
2022-10-16T09:26:11.473Z,17.20
2022-10-16T09:28:41.081Z,17.30
2022-10-16T09:31:18.394Z,17.40
2022-10-16T09:33:48.480Z,17.50
2022-10-16T09:36:16.898Z,17.50
2022-10-16T09:38:44.976Z,17.60
2022-10-16T09:41:21.471Z,17.60
2022-10-16T09:43:55.252Z,17.60
2022-10-16T09:46:31.362Z,17.60
2022-10-16T09:49:01.389Z,17.50
2022-10-16T09:51:32.263Z,17.60
2022-10-16T09:54:02.502Z,17.90
2022-10-16T09:56:33.312Z,17.70
2022-10-16T09:59:05.019Z,17.90
2022-10-16T10:01:38.920Z,18.10
2022-10-16T10:04:08.442Z,18.20
2022-10-16T10:06:39.849Z,18.30
2022-10-16T10:09:17.667Z,18.30
2022-10-16T10:11:50.005Z,18.50
2022-10-16T10:14:27.069Z,18.30
2022-10-16T10:17:04.503Z,18.40
2022-10-16T10:19:39.169Z,18.40
2022-10-16T10:22:19.262Z,18.60
2022-10-16T10:24:56.343Z,18.70
2022-10-16T10:27:30.475Z,18.70
2022-10-16T10:30:08.973Z,18.70
2022-10-16T10:32:48.575Z,18.60
2022-10-16T10:35:22.341Z,18.60
2022-10-16T10:38:05.370Z,18.60
2022-10-16T10:40:44.807Z,18.70
2022-10-16T10:43:25.461Z,18.70
2022-10-16T10:46:00.594Z,18.80
2022-10-16T10:48:49.399Z,18.70
2022-10-16T10:51:26.706Z,18.80
2022-10-16T10:54:02.703Z,18.90
2022-10-16T10:56:44.803Z,18.90
2022-10-16T10:59:38.237Z,19.10
2022-10-16T11:02:17.744Z,19.20
2022-10-16T11:05:19.488Z,19.10
2022-10-16T11:07:53.047Z,19.20
2022-10-16T11:10:24.791Z,19.30
2022-10-16T11:12:59.416Z,19.20
2022-10-16T11:15:31.260Z,19.30
2022-10-16T11:18:07.991Z,19.40
2022-10-16T11:20:42.275Z,19.60
2022-10-16T11:23:16.904Z,19.40
2022-10-16T11:25:47.295Z,19.30
2022-10-16T11:28:21.236Z,19.30
2022-10-16T11:30:52.774Z,19.20
2022-10-16T11:33:33.298Z,19.30
2022-10-16T11:36:08.364Z,19.30
2022-10-16T11:38:41.575Z,19.30
2022-10-16T11:41:20.799Z,19.40
2022-10-16T11:43:55.944Z,19.30
2022-10-16T11:46:26.679Z,19.20
2022-10-16T11:49:02.486Z,19.10
2022-10-16T11:51:37.218Z,19.00
2022-10-16T11:54:16.723Z,19.10
2022-10-16T11:56:48.716Z,19.10
2022-10-16T11:59:25.423Z,19.10
2022-10-16T12:01:59.534Z,19.20
2022-10-16T12:04:34.954Z,19.20
2022-10-16T12:07:07.922Z,19.20
2022-10-16T12:09:40.012Z,19.20
2022-10-16T12:12:29.161Z,19.10
2022-10-16T12:15:54.226Z,19.20
2022-10-16T12:18:25.000Z,19.20
2022-10-16T12:21:00.343Z,19.20
2022-10-16T12:23:28.536Z,19.30
2022-10-16T12:25:58.026Z,19.40
2022-10-16T12:28:29.879Z,19.70
2022-10-16T12:31:00.746Z,19.90
2022-10-16T12:33:30.999Z,20.00
2022-10-16T12:36:01.842Z,20.10
2022-10-16T12:38:32.644Z,20.20
2022-10-16T12:41:04.907Z,20.10
2022-10-16T12:43:43.281Z,20.10
2022-10-16T12:46:40.290Z,20.10
2022-10-16T12:49:22.845Z,19.90
2022-10-16T12:51:52.313Z,20.20
2022-10-16T12:54:23.092Z,19.80
2022-10-16T12:57:04.100Z,19.70
2022-10-16T12:59:40.200Z,19.60
2022-10-16T13:02:41.135Z,19.40
2022-10-16T13:05:30.418Z,19.30
2022-10-16T13:08:14.452Z,19.30
2022-10-16T13:10:47.487Z,19.30
2022-10-16T13:13:30.811Z,19.20
2022-10-16T13:16:10.584Z,19.30
2022-10-16T13:18:49.087Z,19.30
2022-10-16T13:21:29.026Z,19.30
2022-10-16T13:24:04.223Z,19.40
2022-10-16T13:26:41.677Z,19.30
2022-10-16T13:29:09.572Z,19.20
2022-10-16T13:31:40.794Z,19.20
2022-10-16T13:34:16.034Z,19.60
2022-10-16T13:36:51.117Z,19.20
2022-10-16T13:39:25.051Z,19.10
2022-10-16T13:42:09.058Z,19.10
2022-10-16T13:44:42.740Z,19.20
2022-10-16T13:47:19.153Z,19.10
2022-10-16T13:49:47.639Z,19.00
2022-10-16T13:52:20.344Z,19.10
2022-10-16T13:54:49.904Z,19.10
2022-10-16T13:57:33.856Z,19.10
2022-10-16T14:00:01.810Z,19.10
2022-10-16T14:02:32.590Z,19.00
2022-10-16T14:05:01.103Z,19.00
2022-10-16T14:07:32.093Z,19.00
2022-10-16T14:10:05.674Z,19.00
2022-10-16T14:12:34.750Z,18.90
2022-10-16T14:15:03.292Z,18.80
2022-10-16T14:17:34.127Z,18.70
2022-10-16T14:20:06.456Z,18.80
2022-10-16T14:22:37.175Z,18.70
2022-10-16T14:25:23.629Z,18.70
2022-10-16T14:30:41.062Z,18.60
2022-10-16T14:33:23.815Z,18.60
2022-10-16T14:36:04.828Z,18.50
2022-10-16T14:38:33.772Z,18.60
2022-10-16T14:41:05.199Z,18.50
2022-10-16T14:43:36.136Z,18.40
2022-10-16T14:46:07.206Z,18.50
2022-10-16T14:48:41.882Z,18.50
2022-10-16T14:51:16.068Z,19.70
2022-10-16T14:53:43.980Z,18.30
2022-10-16T14:56:19.535Z,18.20
2022-10-16T14:58:47.599Z,18.30
2022-10-16T15:01:15.612Z,18.10
2022-10-16T15:03:43.579Z,18.10
2022-10-16T15:06:13.718Z,18.20
2022-10-16T15:08:41.934Z,18.00
2022-10-16T15:11:14.412Z,18.00
2022-10-16T15:13:42.377Z,18.00
2022-10-16T15:16:13.643Z,17.80
2022-10-16T15:18:41.592Z,17.80
2022-10-16T15:21:09.967Z,17.80
2022-10-16T15:23:38.188Z,17.70
2022-10-16T15:26:10.207Z,17.60
2022-10-16T15:28:42.178Z,17.60
2022-10-16T15:31:10.075Z,17.50
2022-10-16T15:33:39.889Z,17.60
2022-10-16T15:36:09.795Z,17.40
2022-10-16T15:38:38.390Z,17.30
2022-10-16T15:41:09.423Z,17.20
2022-10-16T15:43:37.247Z,17.20
2022-10-16T15:46:18.442Z,17.70
2022-10-16T15:48:47.734Z,17.50
2022-10-16T15:51:18.785Z,17.00
2022-10-16T15:53:48.160Z,17.20
2022-10-16T15:56:16.823Z,16.90
2022-10-16T15:58:46.582Z,16.80
2022-10-16T16:01:15.922Z,16.70
2022-10-16T16:03:45.317Z,16.60
2022-10-16T16:06:14.484Z,17.20
2022-10-16T16:08:42.640Z,16.40
2022-10-16T16:11:12.376Z,16.30
2022-10-16T16:13:43.846Z,16.60
2022-10-16T16:16:14.198Z,16.00
2022-10-16T16:18:43.801Z,15.90
2022-10-16T16:21:13.625Z,15.80
2022-10-16T16:23:41.482Z,15.60
2022-10-16T16:26:13.553Z,15.50
2022-10-16T16:28:43.070Z,15.40
2022-10-16T16:31:11.233Z,15.30
2022-10-16T16:33:39.316Z,15.20
2022-10-16T16:36:14.533Z,15.20
2022-10-16T16:38:43.570Z,15.10
2022-10-16T16:41:15.347Z,15.30
2022-10-16T16:43:43.491Z,15.80
2022-10-16T16:46:11.613Z,15.60
2022-10-16T16:48:40.050Z,15.00
2022-10-16T16:51:12.671Z,15.50
2022-10-16T16:53:40.537Z,15.10
2022-10-16T16:56:09.069Z,15.10
2022-10-16T16:58:37.118Z,14.80
2022-10-16T17:01:21.629Z,14.80
2022-10-16T17:03:52.533Z,14.70
2022-10-16T17:06:23.244Z,14.70
2022-10-16T17:08:51.798Z,14.70
2022-10-16T17:11:21.670Z,14.80
2022-10-16T17:13:53.856Z,14.50
2022-10-16T17:16:26.303Z,14.50
2022-10-16T17:18:54.291Z,14.50
2022-10-16T17:21:23.669Z,14.50
2022-10-16T17:23:53.617Z,14.40
2022-10-16T17:26:21.512Z,14.40
2022-10-16T17:28:52.982Z,14.40
2022-10-16T17:31:23.635Z,15.30
2022-10-16T17:33:52.586Z,14.70
2022-10-16T17:36:21.322Z,15.00
2022-10-16T17:38:50.566Z,14.40
2022-10-16T17:41:20.843Z,14.70
2022-10-16T17:43:49.231Z,14.30
2022-10-16T17:46:19.687Z,14.90
2022-10-16T17:48:49.667Z,14.30
2022-10-16T17:51:19.238Z,15.00
2022-10-16T17:53:51.608Z,14.20
2022-10-16T17:56:20.195Z,14.30
2022-10-16T17:58:51.681Z,14.20
2022-10-16T18:01:22.358Z,14.80
2022-10-16T18:03:51.819Z,14.40
2022-10-16T18:06:22.710Z,15.10
2022-10-16T18:08:52.594Z,14.20
2022-10-16T18:11:21.325Z,15.30
2022-10-16T18:13:49.623Z,15.10
2022-10-16T18:16:17.547Z,14.60
2022-10-16T18:18:45.907Z,14.30
2022-10-16T18:21:15.556Z,14.00
2022-10-16T18:23:49.089Z,14.50
2022-10-16T18:26:22.112Z,14.50
2022-10-16T18:28:53.211Z,13.90
2022-10-16T18:31:22.951Z,13.80
2022-10-16T18:33:51.564Z,13.80
2022-10-16T18:36:22.079Z,13.70
2022-10-16T18:38:50.150Z,14.10
2022-10-16T18:41:18.350Z,15.40
2022-10-16T18:43:47.769Z,13.90
2022-10-16T18:46:17.702Z,13.70
2022-10-16T18:48:46.816Z,13.50
2022-10-16T18:51:16.864Z,13.60
2022-10-16T18:53:46.571Z,13.50
2022-10-16T18:56:15.949Z,13.50
2022-10-16T18:58:44.981Z,13.60
2022-10-16T19:01:16.982Z,13.60
2022-10-16T19:03:45.074Z,13.90
2022-10-16T19:06:15.335Z,13.50
2022-10-16T19:08:44.028Z,13.60
2022-10-16T19:11:13.813Z,13.60
2022-10-16T19:13:41.680Z,13.80
2022-10-16T19:16:20.208Z,14.50
2022-10-16T19:18:52.767Z,13.60
2022-10-16T19:21:21.133Z,13.50
2022-10-16T19:23:52.660Z,14.80
2022-10-16T19:26:21.594Z,14.00
2022-10-16T19:28:49.664Z,13.40
2022-10-16T19:31:19.981Z,13.40
2022-10-16T19:33:48.547Z,13.40
2022-10-16T19:36:19.798Z,13.30
2022-10-16T19:38:48.207Z,14.40
2022-10-16T19:41:17.822Z,13.90
2022-10-16T19:43:46.857Z,14.90
2022-10-16T19:46:17.367Z,13.60
2022-10-16T19:48:45.940Z,13.90
2022-10-16T19:51:15.645Z,13.10
2022-10-16T19:53:44.920Z,14.00
2022-10-16T19:56:14.553Z,13.90
2022-10-16T19:58:42.911Z,13.10
2022-10-16T20:01:10.944Z,13.00
2022-10-16T20:03:40.264Z,13.00
2022-10-16T20:06:09.410Z,13.00
2022-10-16T20:08:38.780Z,13.00
2022-10-16T20:11:12.592Z,14.20
2022-10-16T20:13:42.255Z,13.00
2022-10-16T20:16:11.889Z,13.00
2022-10-16T20:18:39.898Z,13.00
2022-10-16T20:21:11.263Z,13.00
2022-10-16T20:23:39.242Z,13.10
2022-10-16T20:26:11.344Z,13.10
2022-10-16T20:28:41.369Z,13.10
2022-10-16T20:31:11.981Z,13.10
2022-10-16T20:33:39.887Z,15.00
2022-10-16T20:36:12.187Z,13.10
2022-10-16T20:38:40.059Z,15.20
2022-10-16T20:41:10.212Z,14.80
2022-10-16T20:46:17.043Z,13.10
2022-10-16T20:48:46.693Z,15.00
2022-10-16T20:51:17.052Z,14.90
2022-10-16T20:53:45.925Z,13.00
2022-10-16T20:56:15.870Z,13.10
2022-10-16T20:58:43.738Z,15.20
2022-10-16T21:01:13.805Z,14.90
2022-10-16T21:03:42.178Z,13.10
2022-10-16T21:06:11.734Z,13.10
2022-10-16T21:08:41.250Z,13.10
2022-10-16T21:11:13.955Z,13.10
2022-10-16T21:13:43.439Z,13.20
2022-10-16T21:16:13.243Z,13.20
2022-10-16T21:18:44.571Z,14.00
2022-10-16T21:21:21.465Z,13.20
2022-10-16T21:23:49.861Z,13.80
2022-10-16T21:26:18.834Z,15.00
2022-10-16T21:28:48.097Z,13.50
2022-10-16T21:31:18.852Z,13.30
2022-10-16T21:33:47.154Z,13.30
2022-10-16T21:36:17.058Z,13.30
2022-10-16T21:41:20.985Z,14.40
2022-10-16T21:43:50.357Z,14.10
2022-10-16T21:46:19.893Z,13.90
2022-10-16T21:48:47.844Z,13.60
2022-10-16T21:51:16.433Z,14.30
2022-10-16T21:53:44.276Z,13.30
2022-10-16T21:56:16.528Z,14.00
2022-10-16T21:58:45.247Z,13.50
2022-10-16T22:01:16.961Z,13.60
2022-10-16T22:03:45.919Z,13.60
2022-10-16T22:06:15.686Z,13.30
2022-10-16T22:08:44.758Z,13.30
2022-10-16T22:11:14.912Z,13.20
2022-10-16T22:13:43.784Z,14.10
2022-10-16T22:16:12.315Z,13.90
2022-10-16T22:18:42.019Z,13.30
2022-10-16T22:21:10.838Z,14.80
2022-10-16T22:23:38.770Z,13.40
2022-10-16T22:26:08.772Z,13.90
2022-10-16T22:28:37.314Z,13.30
2022-10-16T22:31:06.507Z,13.30
2022-10-16T22:33:35.027Z,13.30
2022-10-16T22:36:07.327Z,13.30
2022-10-16T22:38:36.699Z,13.30
2022-10-16T22:41:05.410Z,13.30
2022-10-16T22:43:36.722Z,13.30
2022-10-16T22:46:05.176Z,13.20
2022-10-16T22:48:33.038Z,13.20
2022-10-16T22:51:00.945Z,13.40
2022-10-16T22:53:30.168Z,14.40
2022-10-16T22:55:58.074Z,13.20
2022-10-16T22:58:26.120Z,13.20
2022-10-16T23:00:54.342Z,13.90
2022-10-16T23:03:22.320Z,13.70
2022-10-16T23:05:50.279Z,13.70
2022-10-16T23:08:18.462Z,14.50
2022-10-16T23:10:49.565Z,14.10
2022-10-16T23:13:17.423Z,14.00
2022-10-16T23:15:45.981Z,12.90
2022-10-16T23:18:13.875Z,12.90
2022-10-16T23:20:42.463Z,12.80
2022-10-16T23:23:10.818Z,12.80
2022-10-16T23:25:45.639Z,14.90
2022-10-16T23:30:51.284Z,12.70
2022-10-16T23:33:19.205Z,12.70
2022-10-16T23:35:47.087Z,12.60
2022-10-16T23:38:14.928Z,13.50
2022-10-16T23:40:42.894Z,12.50
2022-10-16T23:43:10.735Z,12.40
2022-10-16T23:45:39.921Z,12.90
2022-10-16T23:48:07.829Z,12.30
2022-10-16T23:50:35.991Z,12.70
2022-10-16T23:53:06.580Z,12.20
2022-10-16T23:55:37.962Z,12.20
2022-10-16T23:58:05.810Z,12.10
